KDAW

Skyhaven Airport

Rochester, New Hampshire, USA
METAR KDAW 160051Z AUTO 01005KT 10SM CLR 03/M03 A3023 RMK AO2 SLP236 T00331033
Observed Flight Rules
Dec-16 @ 00:51 UTC (24 minutes ago) Visual Flight Rules
Wind Visibility Clouds
10° at 5 knots 10 miles
  • Clear skies
Temperatures Readings
Current 3°C / 37°F
Dewpoint -3°C / 27°F
Humidity 65%
Altimeter 30.23" Hg
Pressure 1023.6 hPa
Elevation 100
METAR KDAW 160051Z AUTO 01005KT 10SM CLR 03/M03 A3023 RMK AO2 SLP236 T00331033
Observed Flight Rules
Dec-16 @ 00:51 UTC
(24 minutes ago)
VFR
Wind Visibility
10° at 5 knots 10 miles
Clouds
  • Clear skies
Temperature Dewpoint
3°C / 37°F -3°C / 27°F
Humidity Altimeter Pressure
65% 30.23" Hg 1023.6 hPa